sensor_id;sensor_type;location;lat;lon;timestamp;P1;durP1;ratioP1;P2;durP2;ratioP2
21392;SDS011;10857;52.228;21.026;2022-09-29T05:41:28;24.37;;;16.33;;
21392;SDS011;10857;52.228;21.026;2022-09-29T05:43:58;24.40;;;16.30;;
21392;SDS011;10857;52.228;21.026;2022-09-29T05:46:26;25.03;;;16.13;;
21392;SDS011;10857;52.228;21.026;2022-09-29T05:48:54;23.93;;;16.10;;
21392;SDS011;10857;52.228;21.026;2022-09-29T05:51:22;26.83;;;16.53;;
21392;SDS011;10857;52.228;21.026;2022-09-29T05:53:52;26.17;;;16.20;;
21392;SDS011;10857;52.228;21.026;2022-09-29T05:56:20;24.73;;;16.17;;
21392;SDS011;10857;52.228;21.026;2022-09-29T05:58:49;28.23;;;15.93;;
21392;SDS011;10857;52.228;21.026;2022-09-29T06:01:17;23.73;;;15.27;;
21392;SDS011;10857;52.228;21.026;2022-09-29T06:03:46;26.97;;;17.83;;
21392;SDS011;10857;52.228;21.026;2022-09-29T06:06:14;27.23;;;16.27;;
21392;SDS011;10857;52.228;21.026;2022-09-29T06:08:43;23.20;;;15.73;;
21392;SDS011;10857;52.228;21.026;2022-09-29T06:11:12;22.80;;;14.77;;
21392;SDS011;10857;52.228;21.026;2022-09-29T06:13:44;27.77;;;17.10;;
21392;SDS011;10857;52.228;21.026;2022-09-29T06:16:13;25.77;;;16.20;;
21392;SDS011;10857;52.228;21.026;2022-09-29T06:18:41;26.70;;;16.80;;
21392;SDS011;10857;52.228;21.026;2022-09-29T06:21:09;25.80;;;16.97;;
21392;SDS011;10857;52.228;21.026;2022-09-29T06:23:40;25.07;;;16.83;;
21392;SDS011;10857;52.228;21.026;2022-09-29T06:26:11;27.07;;;16.80;;
21392;SDS011;10857;52.228;21.026;2022-09-29T06:28:40;28.87;;;16.63;;
21392;SDS011;10857;52.228;21.026;2022-09-29T06:31:12;28.53;;;17.10;;
21392;SDS011;10857;52.228;21.026;2022-09-29T06:33:41;25.47;;;16.93;;
21392;SDS011;10857;52.228;21.026;2022-09-29T06:36:18;26.10;;;17.03;;
21392;SDS011;10857;52.228;21.026;2022-09-29T06:39:11;27.93;;;17.80;;
21392;SDS011;10857;52.228;21.026;2022-09-29T06:41:39;28.70;;;18.27;;
21392;SDS011;10857;52.228;21.026;2022-09-29T06:44:06;31.20;;;18.57;;
21392;SDS011;10857;52.228;21.026;2022-09-29T06:46:34;39.27;;;18.33;;
21392;SDS011;10857;52.228;21.026;2022-09-29T06:49:01;29.10;;;17.90;;
21392;SDS011;10857;52.228;21.026;2022-09-29T06:51:27;25.47;;;16.40;;
21392;SDS011;10857;52.228;21.026;2022-09-29T06:54:13;25.50;;;16.77;;
21392;SDS011;10857;52.228;21.026;2022-09-29T06:56:41;24.43;;;17.03;;
21392;SDS011;10857;52.228;21.026;2022-09-29T06:59:08;23.83;;;16.60;;
21392;SDS011;10857;52.228;21.026;2022-09-29T07:01:35;24.97;;;16.23;;
21392;SDS011;10857;52.228;21.026;2022-09-29T07:04:02;26.03;;;15.57;;
21392;SDS011;10857;52.228;21.026;2022-09-29T07:06:29;22.73;;;15.80;;
21392;SDS011;10857;52.228;21.026;2022-09-29T07:08:56;24.60;;;16.17;;
21392;SDS011;10857;52.228;21.026;2022-09-29T07:11:24;23.77;;;15.90;;
21392;SDS011;10857;52.228;21.026;2022-09-29T07:13:52;22.37;;;15.40;;
21392;SDS011;10857;52.228;21.026;2022-09-29T07:16:20;21.57;;;14.70;;
21392;SDS011;10857;52.228;21.026;2022-09-29T07:18:49;23.17;;;16.27;;
21392;SDS011;10857;52.228;21.026;2022-09-29T07:21:17;22.73;;;15.13;;
21392;SDS011;10857;52.228;21.026;2022-09-29T07:23:45;23.93;;;15.23;;
21392;SDS011;10857;52.228;21.026;2022-09-29T07:26:13;24.87;;;15.43;;
21392;SDS011;10857;52.228;21.026;2022-09-29T07:28:44;23.93;;;14.87;;
21392;SDS011;10857;52.228;21.026;2022-09-29T07:31:13;22.33;;;15.07;;
21392;SDS011;10857;52.228;21.026;2022-09-29T07:33:42;27.67;;;15.10;;
21392;SDS011;10857;52.228;21.026;2022-09-29T07:36:11;23.53;;;14.87;;
21392;SDS011;10857;52.228;21.026;2022-09-29T07:38:38;22.67;;;14.93;;
21392;SDS011;10857;52.228;21.026;2022-09-29T07:41:06;22.80;;;14.83;;
21392;SDS011;10857;52.228;21.026;2022-09-29T07:43:36;22.77;;;15.20;;
21392;SDS011;10857;52.228;21.026;2022-09-29T07:46:04;21.27;;;14.37;;
21392;SDS011;10857;52.228;21.026;2022-09-29T07:48:32;21.23;;;14.03;;
21392;SDS011;10857;52.228;21.026;2022-09-29T07:51:03;20.70;;;13.30;;
21392;SDS011;10857;52.228;21.026;2022-09-29T07:53:31;20.37;;;13.23;;
21392;SDS011;10857;52.228;21.026;2022-09-29T07:58:51;19.13;;;13.73;;
21392;SDS011;10857;52.228;21.026;2022-09-29T08:01:18;21.00;;;14.33;;
21392;SDS011;10857;52.228;21.026;2022-09-29T08:03:49;21.03;;;14.60;;
21392;SDS011;10857;52.228;21.026;2022-09-29T08:06:19;18.63;;;13.40;;
21392;SDS011;10857;52.228;21.026;2022-09-29T08:08:46;20.67;;;13.87;;
21392;SDS011;10857;52.228;21.026;2022-09-29T08:11:28;21.60;;;14.17;;
21392;SDS011;10857;52.228;21.026;2022-09-29T08:13:58;18.67;;;13.43;;
21392;SDS011;10857;52.228;21.026;2022-09-29T08:16:25;19.50;;;13.97;;
21392;SDS011;10857;52.228;21.026;2022-09-29T08:18:53;19.43;;;13.27;;
21392;SDS011;10857;52.228;21.026;2022-09-29T08:21:20;18.80;;;13.40;;
21392;SDS011;10857;52.228;21.026;2022-09-29T08:23:46;18.10;;;13.57;;
21392;SDS011;10857;52.228;21.026;2022-09-29T08:26:14;21.77;;;15.07;;
21392;SDS011;10857;52.228;21.026;2022-09-29T08:28:44;19.20;;;13.10;;
21392;SDS011;10857;52.228;21.026;2022-09-29T08:31:16;21.13;;;13.63;;
21392;SDS011;10857;52.228;21.026;2022-09-29T08:33:48;20.10;;;13.43;;
21392;SDS011;10857;52.228;21.026;2022-09-29T08:36:17;18.93;;;13.73;;
21392;SDS011;10857;52.228;21.026;2022-09-29T08:38:46;17.63;;;12.47;;
21392;SDS011;10857;52.228;21.026;2022-09-29T08:43:55;18.00;;;12.87;;
21392;SDS011;10857;52.228;21.026;2022-09-29T08:49:40;17.23;;;12.73;;
21392;SDS011;10857;52.228;21.026;2022-09-29T08:52:12;25.73;;;13.57;;
21392;SDS011;10857;52.228;21.026;2022-09-29T08:54:44;19.00;;;13.47;;
21392;SDS011;10857;52.228;21.026;2022-09-29T08:57:15;23.53;;;14.30;;
21392;SDS011;10857;52.228;21.026;2022-09-29T08:59:54;18.20;;;12.80;;
21392;SDS011;10857;52.228;21.026;2022-09-29T09:10:42;19.10;;;12.50;;
21392;SDS011;10857;52.228;21.026;2022-09-29T09:13:23;16.95;;;14.07;;
21392;SDS011;10857;52.228;21.026;2022-09-29T09:18:40;15.67;;;12.30;;
21392;SDS011;10857;52.228;21.026;2022-09-29T09:21:43;18.37;;;11.97;;
21392;SDS011;10857;52.228;21.026;2022-09-29T09:24:27;18.40;;;12.07;;
21392;SDS011;10857;52.228;21.026;2022-09-29T09:27:06;14.10;;;11.17;;
21392;SDS011;10857;52.228;21.026;2022-09-29T09:29:41;16.27;;;11.60;;
21392;SDS011;10857;52.228;21.026;2022-09-29T09:32:10;14.93;;;12.23;;
21392;SDS011;10857;52.228;21.026;2022-09-29T09:37:32;15.97;;;11.63;;
21392;SDS011;10857;52.228;21.026;2022-09-29T09:42:38;14.53;;;11.43;;
21392;SDS011;10857;52.228;21.026;2022-09-29T09:45:13;15.37;;;12.10;;
21392;SDS011;10857;52.228;21.026;2022-09-29T09:47:54;16.70;;;11.50;;
21392;SDS011;10857;52.228;21.026;2022-09-29T09:50:25;17.63;;;12.57;;
21392;SDS011;10857;52.228;21.026;2022-09-29T09:52:56;15.70;;;11.53;;
21392;SDS011;10857;52.228;21.026;2022-09-29T09:55:28;16.27;;;11.80;;
21392;SDS011;10857;52.228;21.026;2022-09-29T10:00:29;22.37;;;12.03;;
21392;SDS011;10857;52.228;21.026;2022-09-29T10:03:04;22.43;;;12.70;;
21392;SDS011;10857;52.228;21.026;2022-09-29T10:08:05;20.87;;;13.90;;
21392;SDS011;10857;52.228;21.026;2022-09-29T10:10:38;20.60;;;13.33;;
21392;SDS011;10857;52.228;21.026;2022-09-29T10:13:24;21.57;;;13.40;;
21392;SDS011;10857;52.228;21.026;2022-09-29T10:15:57;21.87;;;13.63;;
21392;SDS011;10857;52.228;21.026;2022-09-29T10:18:34;17.40;;;13.53;;
21392;SDS011;10857;52.228;21.026;2022-09-29T10:21:19;21.03;;;14.10;;
21392;SDS011;10857;52.228;21.026;2022-09-29T10:24:05;21.67;;;13.47;;
21392;SDS011;10857;52.228;21.026;2022-09-29T10:26:46;23.20;;;14.27;;
21392;SDS011;10857;52.228;21.026;2022-09-29T10:32:05;17.40;;;13.43;;
21392;SDS011;10857;52.228;21.026;2022-09-29T10:34:41;19.27;;;13.13;;
21392;SDS011;10857;52.228;21.026;2022-09-29T10:37:20;19.13;;;13.50;;
21392;SDS011;10857;52.228;21.026;2022-09-29T10:39:50;20.63;;;14.20;;
21392;SDS011;10857;52.228;21.026;2022-09-29T10:42:37;18.37;;;13.77;;
21392;SDS011;10857;52.228;21.026;2022-09-29T10:50:25;16.63;;;13.13;;
21392;SDS011;10857;52.228;21.026;2022-09-29T10:52:56;18.13;;;13.50;;
21392;SDS011;10857;52.228;21.026;2022-09-29T10:55:25;17.60;;;13.57;;
21392;SDS011;10857;52.228;21.026;2022-09-29T10:57:55;18.93;;;14.73;;
21392;SDS011;10857;52.228;21.026;2022-09-29T11:02:52;21.97;;;14.90;;
21392;SDS011;10857;52.228;21.026;2022-09-29T11:05:25;20.63;;;14.83;;
21392;SDS011;10857;52.228;21.026;2022-09-29T11:07:52;20.70;;;15.33;;
21392;SDS011;10857;52.228;21.026;2022-09-29T11:10:32;23.10;;;15.47;;
21392;SDS011;10857;52.228;21.026;2022-09-29T11:13:29;18.50;;;14.63;;
21392;SDS011;10857;52.228;21.026;2022-09-29T11:16:22;20.13;;;15.50;;
21392;SDS011;10857;52.228;21.026;2022-09-29T11:19:04;20.27;;;13.87;;
21392;SDS011;10857;52.228;21.026;2022-09-29T11:22:02;16.97;;;13.07;;
21392;SDS011;10857;52.228;21.026;2022-09-29T11:24:54;16.93;;;12.77;;
21392;SDS011;10857;52.228;21.026;2022-09-29T11:32:47;20.10;;;14.63;;
21392;SDS011;10857;52.228;21.026;2022-09-29T11:35:23;19.57;;;15.20;;
21392;SDS011;10857;52.228;21.026;2022-09-29T11:43:45;21.80;;;16.63;;
21392;SDS011;10857;52.228;21.026;2022-09-29T11:46:24;23.27;;;17.67;;
21392;SDS011;10857;52.228;21.026;2022-09-29T11:57:13;21.90;;;15.33;;
21392;SDS011;10857;52.228;21.026;2022-09-29T12:00:04;22.93;;;16.97;;
21392;SDS011;10857;52.228;21.026;2022-09-29T12:05:17;23.30;;;16.03;;
21392;SDS011;10857;52.228;21.026;2022-09-29T12:08:14;24.53;;;16.37;;
21392;SDS011;10857;52.228;21.026;2022-09-29T12:14:29;22.53;;;16.23;;
21392;SDS011;10857;52.228;21.026;2022-09-29T12:17:08;20.30;;;16.03;;
21392;SDS011;10857;52.228;21.026;2022-09-29T12:19:39;20.80;;;15.90;;
21392;SDS011;10857;52.228;21.026;2022-09-29T12:22:09;23.83;;;15.47;;
21392;SDS011;10857;52.228;21.026;2022-09-29T12:24:47;21.97;;;15.90;;
21392;SDS011;10857;52.228;21.026;2022-09-29T12:27:21;21.37;;;15.60;;
21392;SDS011;10857;52.228;21.026;2022-09-29T12:29:52;21.50;;;16.10;;
21392;SDS011;10857;52.228;21.026;2022-09-29T12:35:02;22.40;;;16.67;;
21392;SDS011;10857;52.228;21.026;2022-09-29T12:37:45;25.17;;;17.00;;
21392;SDS011;10857;52.228;21.026;2022-09-29T12:40:21;26.73;;;17.00;;
21392;SDS011;10857;52.228;21.026;2022-09-29T12:43:13;24.47;;;17.17;;
21392;SDS011;10857;52.228;21.026;2022-09-29T12:45:58;21.07;;;16.50;;
21392;SDS011;10857;52.228;21.026;2022-09-29T12:51:26;20.73;;;16.13;;
21392;SDS011;10857;52.228;21.026;2022-09-29T12:54:04;19.83;;;15.57;;
21392;SDS011;10857;52.228;21.026;2022-09-29T12:56:52;17.97;;;14.27;;
21392;SDS011;10857;52.228;21.026;2022-09-29T13:02:01;16.83;;;13.57;;
21392;SDS011;10857;52.228;21.026;2022-09-29T13:16:47;20.60;;;14.67;;
21392;SDS011;10857;52.228;21.026;2022-09-29T13:22:25;18.00;;;14.63;;
21392;SDS011;10857;52.228;21.026;2022-09-29T13:25:10;19.10;;;14.67;;
21392;SDS011;10857;52.228;21.026;2022-09-29T13:27:52;19.87;;;15.00;;
21392;SDS011;10857;52.228;21.026;2022-09-29T13:30:27;20.20;;;15.37;;
21392;SDS011;10857;52.228;21.026;2022-09-29T13:33:19;20.63;;;15.07;;
21392;SDS011;10857;52.228;21.026;2022-09-29T13:35:48;17.90;;;14.43;;
21392;SDS011;10857;52.228;21.026;2022-09-29T13:38:23;19.57;;;14.13;;
21392;SDS011;10857;52.228;21.026;2022-09-29T13:41:07;18.67;;;13.73;;
21392;SDS011;10857;52.228;21.026;2022-09-29T13:44:01;19.07;;;14.10;;
21392;SDS011;10857;52.228;21.026;2022-09-29T13:49:30;17.27;;;13.53;;
21392;SDS011;10857;52.228;21.026;2022-09-29T13:54:37;19.80;;;14.00;;
21392;SDS011;10857;52.228;21.026;2022-09-29T13:59:39;17.23;;;14.03;;
21392;SDS011;10857;52.228;21.026;2022-09-29T14:04:58;18.20;;;13.37;;
21392;SDS011;10857;52.228;21.026;2022-09-29T14:10:20;19.07;;;14.20;;
21392;SDS011;10857;52.228;21.026;2022-09-29T14:13:00;18.77;;;14.67;;
21392;SDS011;10857;52.228;21.026;2022-09-29T14:15:32;21.70;;;15.27;;
21392;SDS011;10857;52.228;21.026;2022-09-29T14:18:03;19.00;;;14.17;;
21392;SDS011;10857;52.228;21.026;2022-09-29T14:20:43;19.27;;;13.93;;
21392;SDS011;10857;52.228;21.026;2022-09-29T14:29:22;19.80;;;14.70;;
21392;SDS011;10857;52.228;21.026;2022-09-29T14:31:55;16.33;;;13.17;;
21392;SDS011;10857;52.228;21.026;2022-09-29T14:34:26;18.17;;;13.40;;
21392;SDS011;10857;52.228;21.026;2022-09-29T14:36:58;16.67;;;13.27;;
21392;SDS011;10857;52.228;21.026;2022-09-29T14:39:26;18.03;;;13.73;;
21392;SDS011;10857;52.228;21.026;2022-09-29T14:41:56;17.83;;;13.97;;
21392;SDS011;10857;52.228;21.026;2022-09-29T14:46:59;17.50;;;13.10;;
21392;SDS011;10857;52.228;21.026;2022-09-29T14:53:07;19.43;;;13.43;;
21392;SDS011;10857;52.228;21.026;2022-09-29T15:04:44;18.47;;;14.13;;
21392;SDS011;10857;52.228;21.026;2022-09-29T15:07:12;18.80;;;13.73;;
21392;SDS011;10857;52.228;21.026;2022-09-29T15:09:49;18.87;;;13.87;;
21392;SDS011;10857;52.228;21.026;2022-09-29T15:12:21;21.93;;;15.23;;
21392;SDS011;10857;52.228;21.026;2022-09-29T15:14:52;20.87;;;15.13;;
21392;SDS011;10857;52.228;21.026;2022-09-29T15:26:22;14.40;;;11.17;;
21392;SDS011;10857;52.228;21.026;2022-09-29T15:28:53;15.77;;;11.80;;
21392;SDS011;10857;52.228;21.026;2022-09-29T15:31:24;16.20;;;12.20;;
21392;SDS011;10857;52.228;21.026;2022-09-29T15:33:54;17.37;;;12.33;;
21392;SDS011;10857;52.228;21.026;2022-09-29T15:36:23;16.27;;;11.93;;
21392;SDS011;10857;52.228;21.026;2022-09-29T15:39:00;18.23;;;12.20;;
21392;SDS011;10857;52.228;21.026;2022-09-29T15:41:30;16.07;;;12.27;;
21392;SDS011;10857;52.228;21.026;2022-09-29T15:44:07;17.13;;;11.80;;
21392;SDS011;10857;52.228;21.026;2022-09-29T15:46:48;15.20;;;12.30;;
21392;SDS011;10857;52.228;21.026;2022-09-29T15:49:18;15.77;;;11.83;;
21392;SDS011;10857;52.228;21.026;2022-09-29T15:51:53;14.13;;;11.80;;
21392;SDS011;10857;52.228;21.026;2022-09-29T15:54:39;19.40;;;12.77;;
21392;SDS011;10857;52.228;21.026;2022-09-29T16:05:18;15.93;;;12.30;;
21392;SDS011;10857;52.228;21.026;2022-09-29T16:07:52;16.10;;;12.63;;
21392;SDS011;10857;52.228;21.026;2022-09-29T16:10:27;18.43;;;13.47;;
21392;SDS011;10857;52.228;21.026;2022-09-29T16:13:00;19.00;;;13.03;;
21392;SDS011;10857;52.228;21.026;2022-09-29T16:15:34;18.90;;;13.60;;
21392;SDS011;10857;52.228;21.026;2022-09-29T16:18:15;18.93;;;13.67;;
21392;SDS011;10857;52.228;21.026;2022-09-29T16:20:50;21.10;;;13.93;;
21392;SDS011;10857;52.228;21.026;2022-09-29T16:23:26;19.23;;;14.43;;
21392;SDS011;10857;52.228;21.026;2022-09-29T16:28:34;25.80;;;14.60;;
21392;SDS011;10857;52.228;21.026;2022-09-29T16:31:03;19.63;;;14.00;;
21392;SDS011;10857;52.228;21.026;2022-09-29T16:33:44;22.03;;;14.00;;
21392;SDS011;10857;52.228;21.026;2022-09-29T16:36:28;20.57;;;15.17;;
21392;SDS011;10857;52.228;21.026;2022-09-29T16:38:59;20.50;;;15.67;;
21392;SDS011;10857;52.228;21.026;2022-09-29T16:49:21;20.83;;;14.83;;
21392;SDS011;10857;52.228;21.026;2022-09-29T16:51:51;19.80;;;14.77;;
21392;SDS011;10857;52.228;21.026;2022-09-29T16:54:27;21.53;;;15.67;;
21392;SDS011;10857;52.228;21.026;2022-09-29T16:57:11;22.27;;;15.40;;
21392;SDS011;10857;52.228;21.026;2022-09-29T16:59:52;19.73;;;15.47;;
21392;SDS011;10857;52.228;21.026;2022-09-29T17:02:21;24.93;;;16.27;;
21392;SDS011;10857;52.228;21.026;2022-09-29T17:04:52;25.27;;;16.37;;
21392;SDS011;10857;52.228;21.026;2022-09-29T17:07:21;24.13;;;15.83;;
21392;SDS011;10857;52.228;21.026;2022-09-29T17:09:52;22.43;;;15.87;;
21392;SDS011;10857;52.228;21.026;2022-09-29T17:12:21;24.83;;;15.30;;
21392;SDS011;10857;52.228;21.026;2022-09-29T17:14:49;21.10;;;15.57;;
21392;SDS011;10857;52.228;21.026;2022-09-29T17:17:23;18.70;;;14.53;;
21392;SDS011;10857;52.228;21.026;2022-09-29T17:19:53;20.47;;;15.00;;
21392;SDS011;10857;52.228;21.026;2022-09-29T17:22:28;21.67;;;14.43;;
21392;SDS011;10857;52.228;21.026;2022-09-29T17:24:57;22.47;;;14.67;;
21392;SDS011;10857;52.228;21.026;2022-09-29T17:27:24;19.50;;;13.87;;
21392;SDS011;10857;52.228;21.026;2022-09-29T17:30:11;21.67;;;14.20;;
21392;SDS011;10857;52.228;21.026;2022-09-29T17:32:43;21.30;;;15.10;;
21392;SDS011;10857;52.228;21.026;2022-09-29T17:35:12;23.27;;;15.33;;
21392;SDS011;10857;52.228;21.026;2022-09-29T17:37:40;20.40;;;15.17;;
21392;SDS011;10857;52.228;21.026;2022-09-29T17:40:18;21.00;;;15.03;;
21392;SDS011;10857;52.228;21.026;2022-09-29T17:42:58;22.07;;;14.77;;
21392;SDS011;10857;52.228;21.026;2022-09-29T17:45:26;20.83;;;15.23;;
21392;SDS011;10857;52.228;21.026;2022-09-29T17:48:07;20.37;;;15.13;;
21392;SDS011;10857;52.228;21.026;2022-09-29T17:50:47;24.57;;;16.10;;
21392;SDS011;10857;52.228;21.026;2022-09-29T17:53:16;23.23;;;16.07;;
21392;SDS011;10857;52.228;21.026;2022-09-29T17:55:45;22.40;;;15.40;;
21392;SDS011;10857;52.228;21.026;2022-09-29T17:58:15;21.67;;;16.10;;
21392;SDS011;10857;52.228;21.026;2022-09-29T18:00:45;23.17;;;16.43;;
21392;SDS011;10857;52.228;21.026;2022-09-29T18:03:15;21.13;;;16.00;;
21392;SDS011;10857;52.228;21.026;2022-09-29T18:05:47;23.27;;;16.27;;
21392;SDS011;10857;52.228;21.026;2022-09-29T18:08:21;24.87;;;16.43;;
21392;SDS011;10857;52.228;21.026;2022-09-29T18:13:18;24.23;;;16.40;;
21392;SDS011;10857;52.228;21.026;2022-09-29T18:15:45;22.00;;;16.23;;
21392;SDS011;10857;52.228;21.026;2022-09-29T18:18:13;23.63;;;17.20;;
21392;SDS011;10857;52.228;21.026;2022-09-29T18:20:42;23.40;;;17.27;;
21392;SDS011;10857;52.228;21.026;2022-09-29T18:23:12;26.70;;;16.93;;
21392;SDS011;10857;52.228;21.026;2022-09-29T18:25:41;22.93;;;16.70;;
21392;SDS011;10857;52.228;21.026;2022-09-29T18:28:13;25.70;;;16.47;;
21392;SDS011;10857;52.228;21.026;2022-09-29T18:30:41;35.20;;;19.53;;
21392;SDS011;10857;52.228;21.026;2022-09-29T18:33:11;34.70;;;19.83;;
21392;SDS011;10857;52.228;21.026;2022-09-29T18:35:40;30.93;;;18.97;;
21392;SDS011;10857;52.228;21.026;2022-09-29T18:38:09;36.40;;;23.43;;
21392;SDS011;10857;52.228;21.026;2022-09-29T18:40:37;32.47;;;19.57;;
21392;SDS011;10857;52.228;21.026;2022-09-29T18:43:05;29.90;;;18.60;;
21392;SDS011;10857;52.228;21.026;2022-09-29T18:45:36;31.10;;;18.50;;
21392;SDS011;10857;52.228;21.026;2022-09-29T18:48:05;29.43;;;17.73;;
21392;SDS011;10857;52.228;21.026;2022-09-29T18:50:34;25.37;;;18.17;;
21392;SDS011;10857;52.228;21.026;2022-09-29T18:53:12;29.00;;;17.90;;
21392;SDS011;10857;52.228;21.026;2022-09-29T18:55:40;26.00;;;17.13;;
21392;SDS011;10857;52.228;21.026;2022-09-29T19:00:56;31.57;;;19.03;;
21392;SDS011;10857;52.228;21.026;2022-09-29T19:03:25;24.90;;;17.73;;
21392;SDS011;10857;52.228;21.026;2022-09-29T19:05:52;23.87;;;17.93;;
21392;SDS011;10857;52.228;21.026;2022-09-29T19:08:20;26.20;;;17.93;;
21392;SDS011;10857;52.228;21.026;2022-09-29T19:10:56;25.87;;;17.60;;
21392;SDS011;10857;52.228;21.026;2022-09-29T19:13:23;28.13;;;19.90;;
21392;SDS011;10857;52.228;21.026;2022-09-29T19:15:54;40.07;;;25.07;;
21392;SDS011;10857;52.228;21.026;2022-09-29T19:18:23;33.37;;;21.97;;
21392;SDS011;10857;52.228;21.026;2022-09-29T19:20:51;32.60;;;20.17;;
21392;SDS011;10857;52.228;21.026;2022-09-29T19:23:22;31.37;;;19.60;;
21392;SDS011;10857;52.228;21.026;2022-09-29T19:25:51;26.47;;;19.40;;
21392;SDS011;10857;52.228;21.026;2022-09-29T19:28:19;31.97;;;20.43;;
21392;SDS011;10857;52.228;21.026;2022-09-29T19:30:48;29.87;;;20.00;;
21392;SDS011;10857;52.228;21.026;2022-09-29T19:33:17;27.53;;;19.17;;
21392;SDS011;10857;52.228;21.026;2022-09-29T19:35:50;29.27;;;19.40;;
21392;SDS011;10857;52.228;21.026;2022-09-29T19:38:20;28.60;;;20.00;;
21392;SDS011;10857;52.228;21.026;2022-09-29T19:40:47;31.57;;;21.80;;
21392;SDS011;10857;52.228;21.026;2022-09-29T19:43:16;30.57;;;19.73;;
21392;SDS011;10857;52.228;21.026;2022-09-29T19:45:43;29.87;;;20.20;;
21392;SDS011;10857;52.228;21.026;2022-09-29T19:48:14;31.93;;;20.00;;
21392;SDS011;10857;52.228;21.026;2022-09-29T19:50:43;30.10;;;19.77;;
21392;SDS011;10857;52.228;21.026;2022-09-29T19:53:29;33.43;;;20.20;;
21392;SDS011;10857;52.228;21.026;2022-09-29T19:55:56;30.63;;;20.60;;
21392;SDS011;10857;52.228;21.026;2022-09-29T19:58:23;29.63;;;19.63;;
21392;SDS011;10857;52.228;21.026;2022-09-29T20:00:54;28.10;;;20.23;;
21392;SDS011;10857;52.228;21.026;2022-09-29T20:03:22;28.57;;;20.03;;
21392;SDS011;10857;52.228;21.026;2022-09-29T20:05:50;32.67;;;19.87;;
21392;SDS011;10857;52.228;21.026;2022-09-29T20:08:16;33.87;;;20.83;;
21392;SDS011;10857;52.228;21.026;2022-09-29T20:10:43;33.27;;;21.37;;
21392;SDS011;10857;52.228;21.026;2022-09-29T20:13:10;31.47;;;21.30;;
21392;SDS011;10857;52.228;21.026;2022-09-29T20:15:40;32.37;;;20.83;;
21392;SDS011;10857;52.228;21.026;2022-09-29T20:18:09;30.17;;;20.63;;
21392;SDS011;10857;52.228;21.026;2022-09-29T20:20:36;32.73;;;21.00;;
21392;SDS011;10857;52.228;21.026;2022-09-29T20:23:04;31.30;;;21.50;;
21392;SDS011;10857;52.228;21.026;2022-09-29T20:25:31;35.27;;;22.00;;
21392;SDS011;10857;52.228;21.026;2022-09-29T20:27:58;35.33;;;20.90;;
21392;SDS011;10857;52.228;21.026;2022-09-29T20:30:25;32.10;;;20.77;;
21392;SDS011;10857;52.228;21.026;2022-09-29T20:32:52;29.57;;;20.67;;
21392;SDS011;10857;52.228;21.026;2022-09-29T20:35:18;33.50;;;21.87;;
21392;SDS011;10857;52.228;21.026;2022-09-29T20:37:45;34.67;;;22.20;;
21392;SDS011;10857;52.228;21.026;2022-09-29T20:40:14;31.47;;;21.47;;
21392;SDS011;10857;52.228;21.026;2022-09-29T20:42:41;34.33;;;22.30;;
21392;SDS011;10857;52.228;21.026;2022-09-29T20:45:13;31.40;;;22.13;;
21392;SDS011;10857;52.228;21.026;2022-09-29T20:47:41;39.53;;;23.80;;
21392;SDS011;10857;52.228;21.026;2022-09-29T20:50:08;33.60;;;22.53;;
21392;SDS011;10857;52.228;21.026;2022-09-29T20:52:35;34.77;;;22.67;;
21392;SDS011;10857;52.228;21.026;2022-09-29T20:55:02;40.07;;;24.40;;
21392;SDS011;10857;52.228;21.026;2022-09-29T20:57:30;40.37;;;25.03;;
21392;SDS011;10857;52.228;21.026;2022-09-29T20:59:57;42.90;;;26.83;;
21392;SDS011;10857;52.228;21.026;2022-09-29T21:02:24;38.77;;;24.87;;
21392;SDS011;10857;52.228;21.026;2022-09-29T21:04:51;39.87;;;24.83;;
21392;SDS011;10857;52.228;21.026;2022-09-29T21:07:17;40.67;;;24.80;;
21392;SDS011;10857;52.228;21.026;2022-09-29T21:10:03;42.27;;;24.67;;
21392;SDS011;10857;52.228;21.026;2022-09-29T21:12:31;39.20;;;24.63;;
21392;SDS011;10857;52.228;21.026;2022-09-29T21:14:59;40.07;;;24.70;;
21392;SDS011;10857;52.228;21.026;2022-09-29T21:17:26;39.40;;;24.87;;
21392;SDS011;10857;52.228;21.026;2022-09-29T21:19:53;39.17;;;24.23;;
21392;SDS011;10857;52.228;21.026;2022-09-29T21:22:21;36.63;;;23.67;;
21392;SDS011;10857;52.228;21.026;2022-09-29T21:24:53;38.20;;;24.57;;
21392;SDS011;10857;52.228;21.026;2022-09-29T21:27:20;38.60;;;25.90;;
21392;SDS011;10857;52.228;21.026;2022-09-29T21:29:47;39.43;;;26.37;;
21392;SDS011;10857;52.228;21.026;2022-09-29T21:32:13;38.93;;;26.10;;
21392;SDS011;10857;52.228;21.026;2022-09-29T21:34:40;38.57;;;25.10;;
21392;SDS011;10857;52.228;21.026;2022-09-29T21:37:07;35.43;;;23.87;;
21392;SDS011;10857;52.228;21.026;2022-09-29T21:39:35;35.43;;;23.60;;
21392;SDS011;10857;52.228;21.026;2022-09-29T21:42:02;33.80;;;22.17;;
21392;SDS011;10857;52.228;21.026;2022-09-29T21:44:29;35.43;;;22.70;;
21392;SDS011;10857;52.228;21.026;2022-09-29T21:46:56;34.17;;;23.13;;
